createdAt,value
2023-03-24T00:01:10.052Z,14.01
2023-03-24T00:03:38.020Z,14.05
2023-03-24T00:06:07.709Z,14.09
2023-03-24T00:08:37.050Z,14.08
2023-03-24T00:11:07.814Z,14.07
2023-03-24T00:13:38.431Z,13.98
2023-03-24T00:16:08.169Z,14.27
2023-03-24T00:18:37.099Z,14.05
2023-03-24T00:21:06.223Z,14.09
2023-03-24T00:23:34.719Z,14.03
2023-03-24T00:26:03.801Z,14.08
2023-03-24T00:28:33.317Z,13.99
2023-03-24T00:31:03.186Z,14.21
2023-03-24T00:33:31.784Z,14.02
2023-03-24T00:35:59.872Z,13.84
2023-03-24T00:38:27.963Z,14.04
2023-03-24T00:40:56.014Z,14.01
2023-03-24T00:43:24.155Z,14.03
2023-03-24T00:45:52.493Z,13.99
2023-03-24T00:48:24.264Z,13.99
2023-03-24T00:50:52.888Z,14.02
2023-03-24T00:53:23.092Z,14.09
2023-03-24T00:55:51.043Z,14.07
2023-03-24T00:58:20.061Z,14.15
2023-03-24T01:00:49.859Z,14.00
2023-03-24T01:03:19.536Z,14.12
2023-03-24T01:05:49.125Z,14.28
2023-03-24T01:08:20.285Z,14.18
2023-03-24T01:10:53.308Z,14.09
2023-03-24T01:13:21.963Z,14.16
2023-03-24T01:15:49.813Z,14.11
2023-03-24T01:18:18.235Z,14.29
2023-03-24T01:20:49.077Z,14.26
2023-03-24T01:23:19.181Z,14.16
2023-03-24T01:25:48.217Z,14.33
2023-03-24T01:28:17.619Z,14.25
2023-03-24T01:30:46.096Z,14.02
2023-03-24T01:33:14.129Z,14.05
2023-03-24T01:35:42.201Z,14.04
2023-03-24T01:38:13.520Z,13.91
2023-03-24T01:40:43.504Z,13.86
2023-03-24T01:43:19.241Z,13.79
2023-03-24T01:46:00.436Z,13.92
2023-03-24T01:48:31.387Z,14.02
2023-03-24T01:51:07.480Z,14.04
2023-03-24T01:53:54.879Z,13.95
2023-03-24T01:56:23.314Z,14.04
2023-03-24T01:58:53.540Z,13.93
2023-03-24T02:01:22.044Z,14.04
2023-03-24T02:03:50.320Z,14.09
2023-03-24T02:06:20.105Z,13.82
2023-03-24T02:08:53.050Z,14.10
2023-03-24T02:11:23.791Z,13.79
2023-03-24T02:13:51.668Z,14.03
2023-03-24T02:16:31.847Z,14.05
2023-03-24T02:19:14.850Z,14.02
2023-03-24T02:22:26.217Z,14.05
2023-03-24T02:25:25.800Z,14.05
2023-03-24T02:28:12.291Z,14.08
2023-03-24T02:31:06.486Z,14.01
2023-03-24T02:34:05.642Z,14.18
2023-03-24T02:36:49.627Z,13.98
2023-03-24T02:39:52.903Z,14.00
2023-03-24T02:42:30.870Z,14.11
2023-03-24T02:45:08.368Z,14.12
2023-03-24T02:47:44.148Z,14.17
2023-03-24T02:50:18.339Z,14.25
2023-03-24T02:52:47.926Z,14.19
2023-03-24T02:55:21.188Z,14.11
2023-03-24T02:57:52.840Z,14.14
2023-03-24T03:00:26.189Z,14.14
2023-03-24T03:02:57.213Z,14.26
2023-03-24T03:05:28.907Z,14.18
2023-03-24T03:07:59.316Z,14.01
2023-03-24T03:10:31.262Z,14.07
2023-03-24T03:13:02.796Z,14.05
2023-03-24T03:15:35.917Z,14.11
2023-03-24T03:18:08.795Z,14.12
2023-03-24T03:20:42.743Z,14.22
2023-03-24T03:23:14.351Z,14.10
2023-03-24T03:25:50.398Z,14.17
2023-03-24T03:28:20.712Z,14.14
2023-03-24T03:30:52.399Z,13.80
2023-03-24T03:33:25.549Z,13.95
2023-03-24T03:35:55.506Z,13.82
2023-03-24T03:38:26.124Z,13.84
2023-03-24T03:40:57.453Z,13.81
2023-03-24T03:43:27.113Z,13.84
2023-03-24T03:45:55.397Z,13.80
2023-03-24T03:48:26.450Z,13.65
2023-03-24T03:51:06.308Z,13.80
2023-03-24T03:53:44.748Z,13.70
2023-03-24T03:56:14.083Z,13.70
2023-03-24T03:58:42.444Z,13.63
2023-03-24T04:01:14.058Z,13.86
2023-03-24T04:03:54.762Z,13.50
2023-03-24T04:06:28.715Z,13.02
2023-03-24T04:09:01.405Z,13.02
2023-03-24T04:11:49.607Z,13.18
2023-03-24T04:14:36.028Z,13.08
2023-03-24T04:17:09.807Z,12.90
2023-03-24T04:19:47.683Z,13.04
2023-03-24T04:22:25.271Z,13.15
2023-03-24T04:24:55.936Z,13.12
2023-03-24T04:27:29.560Z,13.13
2023-03-24T04:30:06.275Z,12.97
2023-03-24T04:32:37.368Z,12.66
2023-03-24T04:35:08.480Z,12.66
2023-03-24T04:37:38.246Z,12.68
2023-03-24T04:40:09.305Z,12.39
2023-03-24T04:42:40.446Z,12.50
2023-03-24T04:45:09.420Z,12.67
2023-03-24T04:47:43.180Z,12.58
2023-03-24T04:50:12.115Z,12.40
2023-03-24T04:52:40.046Z,12.52
2023-03-24T04:55:27.658Z,12.56
2023-03-24T04:57:56.734Z,12.36
2023-03-24T05:00:24.498Z,12.51
2023-03-24T05:02:52.555Z,12.34
2023-03-24T05:05:20.328Z,11.93
2023-03-24T05:07:48.187Z,12.00
2023-03-24T05:10:16.664Z,11.81
2023-03-24T05:12:44.338Z,11.67
2023-03-24T05:15:13.918Z,11.95
2023-03-24T05:17:41.685Z,11.79
2023-03-24T05:20:11.072Z,11.87
2023-03-24T05:22:39.040Z,11.95
2023-03-24T05:25:07.517Z,11.90
2023-03-24T05:27:35.342Z,11.76
2023-03-24T05:30:03.484Z,11.89
2023-03-24T05:32:32.603Z,11.86
2023-03-24T05:35:00.402Z,11.82
2023-03-24T05:37:28.492Z,12.10
2023-03-24T05:39:56.211Z,11.84
2023-03-24T05:42:24.359Z,12.12
2023-03-24T05:44:52.019Z,12.04
2023-03-24T05:47:20.280Z,11.88
2023-03-24T05:49:50.339Z,12.17
2023-03-24T05:52:20.393Z,12.13
2023-03-24T05:54:52.019Z,11.75
2023-03-24T05:57:21.166Z,11.77
2023-03-24T05:59:48.868Z,12.03
2023-03-24T06:02:16.608Z,12.06
2023-03-24T06:04:46.373Z,12.28
2023-03-24T06:07:16.405Z,12.14
2023-03-24T06:09:46.963Z,12.33
2023-03-24T06:12:16.196Z,12.35
2023-03-24T06:14:45.504Z,12.04
2023-03-24T06:17:15.368Z,12.47
2023-03-24T06:19:49.694Z,12.51
2023-03-24T06:22:20.165Z,12.85
2023-03-24T06:24:50.082Z,12.74
2023-03-24T06:27:21.611Z,12.77
2023-03-24T06:29:49.297Z,13.04
2023-03-24T06:32:19.834Z,12.97
2023-03-24T06:34:47.659Z,12.26
2023-03-24T06:37:15.510Z,12.92
2023-03-24T06:39:44.522Z,13.12
2023-03-24T06:42:12.232Z,13.26
2023-03-24T06:44:40.262Z,13.19
2023-03-24T06:47:07.935Z,13.30
2023-03-24T06:49:37.220Z,12.96
2023-03-24T06:52:05.069Z,12.94
2023-03-24T06:54:32.718Z,12.85
2023-03-24T06:57:01.842Z,12.93
2023-03-24T06:59:29.604Z,12.96
2023-03-24T07:01:57.297Z,13.04
2023-03-24T07:04:25.690Z,13.14
2023-03-24T07:07:06.474Z,12.98
2023-03-24T07:09:40.627Z,13.14
2023-03-24T07:12:12.776Z,13.04
2023-03-24T07:14:41.581Z,12.82
2023-03-24T07:17:09.276Z,13.15
2023-03-24T07:19:37.131Z,13.12
2023-03-24T07:22:04.822Z,13.33
2023-03-24T07:24:32.516Z,13.21
2023-03-24T07:27:00.209Z,13.04
2023-03-24T07:29:29.505Z,13.03
2023-03-24T07:31:58.742Z,12.86
2023-03-24T07:34:27.129Z,12.66
2023-03-24T07:36:54.991Z,13.11
2023-03-24T07:39:23.095Z,12.60
2023-03-24T07:41:50.858Z,13.28
2023-03-24T07:44:18.567Z,13.12
2023-03-24T07:46:47.606Z,13.48
2023-03-24T07:49:19.454Z,13.15
2023-03-24T07:51:47.671Z,13.36
2023-03-24T07:54:15.422Z,13.28
2023-03-24T07:56:43.245Z,13.18
2023-03-24T07:59:11.054Z,13.54
2023-03-24T08:01:39.027Z,13.71
2023-03-24T08:04:08.153Z,13.79
2023-03-24T08:06:35.914Z,13.69
2023-03-24T08:09:03.986Z,14.29
2023-03-24T08:11:31.661Z,14.25
2023-03-24T08:13:59.487Z,14.43
2023-03-24T08:16:27.203Z,14.40
2023-03-24T08:18:58.137Z,15.17
2023-03-24T08:21:27.489Z,15.02
2023-03-24T08:23:55.149Z,14.82
2023-03-24T08:26:26.899Z,15.04
2023-03-24T08:28:54.922Z,15.07
2023-03-24T08:31:22.696Z,15.33
2023-03-24T08:33:50.444Z,14.85
2023-03-24T08:36:18.199Z,14.79
2023-03-24T08:38:48.079Z,14.40
2023-03-24T08:41:16.396Z,14.77
2023-03-24T08:43:44.526Z,14.48
2023-03-24T08:46:13.889Z,14.42
2023-03-24T08:48:43.109Z,14.55
2023-03-24T08:51:12.906Z,14.02
2023-03-24T08:53:40.651Z,14.63
2023-03-24T08:56:10.683Z,14.78
2023-03-24T08:58:38.376Z,14.58
2023-03-24T09:01:06.638Z,14.66
2023-03-24T09:03:36.005Z,14.71
2023-03-24T09:06:03.729Z,14.07
2023-03-24T09:08:31.553Z,14.16
2023-03-24T09:10:59.397Z,14.15
2023-03-24T09:13:28.587Z,14.30
2023-03-24T09:16:00.929Z,14.55
2023-03-24T09:18:28.709Z,14.77
2023-03-24T09:20:56.612Z,15.06
2023-03-24T09:23:24.286Z,15.08
2023-03-24T09:25:52.501Z,15.44
2023-03-24T09:28:20.418Z,15.34
2023-03-24T09:30:49.905Z,15.28
2023-03-24T09:33:17.885Z,14.70
2023-03-24T09:35:45.671Z,14.59
2023-03-24T09:38:13.356Z,14.55
2023-03-24T09:40:41.790Z,15.06
2023-03-24T09:43:15.296Z,14.62
2023-03-24T09:45:46.173Z,14.87
2023-03-24T09:48:19.630Z,15.17
2023-03-24T09:50:52.296Z,15.49
2023-03-24T09:53:28.457Z,15.39
2023-03-24T09:55:56.441Z,15.95
2023-03-24T09:58:25.301Z,15.53
2023-03-24T10:00:56.040Z,16.15
2023-03-24T10:03:26.162Z,15.83
2023-03-24T10:05:58.341Z,15.46
2023-03-24T10:08:30.688Z,15.31
2023-03-24T10:11:03.633Z,15.58
2023-03-24T10:13:40.189Z,15.46
2023-03-24T10:16:12.779Z,15.26
2023-03-24T10:18:47.159Z,15.15
2023-03-24T10:21:18.936Z,14.92
2023-03-24T10:23:53.925Z,15.28
2023-03-24T10:26:31.328Z,14.80
2023-03-24T10:29:08.885Z,15.21
2023-03-24T10:31:38.721Z,15.60
2023-03-24T10:34:11.990Z,14.78
2023-03-24T10:36:40.314Z,15.21
2023-03-24T10:39:19.598Z,15.72
2023-03-24T10:41:50.391Z,15.92
2023-03-24T10:44:18.554Z,16.05
2023-03-24T10:46:48.474Z,15.44
2023-03-24T10:49:19.781Z,15.72
2023-03-24T10:51:49.664Z,15.49
2023-03-24T10:54:19.856Z,15.36
2023-03-24T10:56:50.505Z,15.40
2023-03-24T10:59:27.417Z,15.12
2023-03-24T11:02:03.931Z,15.00
2023-03-24T11:04:33.741Z,15.22
2023-03-24T11:07:05.696Z,15.08
2023-03-24T11:09:41.015Z,15.56
2023-03-24T11:12:21.633Z,15.45
2023-03-24T11:14:49.385Z,15.72
2023-03-24T11:17:17.502Z,15.85
2023-03-24T11:19:59.448Z,16.26
2023-03-24T11:22:27.423Z,16.22
2023-03-24T11:24:57.689Z,16.77
2023-03-24T11:27:25.488Z,16.46
2023-03-24T11:29:55.466Z,16.70
2023-03-24T11:32:27.113Z,16.52
2023-03-24T11:35:03.403Z,16.26
2023-03-24T11:37:34.110Z,16.68
2023-03-24T11:40:20.984Z,16.12
2023-03-24T11:42:50.708Z,16.04
2023-03-24T11:45:24.938Z,15.33
2023-03-24T11:47:53.933Z,15.63
2023-03-24T11:50:26.723Z,15.69
2023-03-24T11:52:56.051Z,15.72
2023-03-24T11:55:29.889Z,15.81
2023-03-24T11:58:00.592Z,15.64
2023-03-24T12:00:34.709Z,15.60
2023-03-24T12:03:44.328Z,15.64
2023-03-24T12:06:25.750Z,15.50
2023-03-24T12:09:00.255Z,15.76
2023-03-24T12:11:35.275Z,15.17
2023-03-24T12:14:04.442Z,15.32
2023-03-24T12:16:43.318Z,15.41
2023-03-24T12:19:38.152Z,15.78
2023-03-24T12:22:16.237Z,15.68
2023-03-24T12:24:57.560Z,15.47
2023-03-24T12:27:32.552Z,15.68
2023-03-24T12:30:02.236Z,15.22
2023-03-24T12:32:40.228Z,15.82
2023-03-24T12:35:43.466Z,15.99
2023-03-24T12:38:29.015Z,16.02
2023-03-24T12:41:14.882Z,15.89
2023-03-24T12:43:49.369Z,15.66
2023-03-24T12:46:46.769Z,14.78
2023-03-24T12:49:37.753Z,15.11
2023-03-24T12:52:18.737Z,15.18
2023-03-24T12:54:51.941Z,14.36
2023-03-24T12:57:23.916Z,14.15
2023-03-24T12:59:54.346Z,14.39
2023-03-24T13:02:27.527Z,14.48
2023-03-24T13:04:58.818Z,14.49
2023-03-24T13:07:28.851Z,14.44
2023-03-24T13:10:01.586Z,14.43
2023-03-24T13:12:33.121Z,14.92
2023-03-24T13:15:05.204Z,15.58
2023-03-24T13:17:37.063Z,16.03
2023-03-24T13:20:08.134Z,16.80
2023-03-24T13:22:37.445Z,17.05
2023-03-24T13:25:18.702Z,16.15
2023-03-24T13:27:47.959Z,16.35
2023-03-24T13:30:36.512Z,15.32
2023-03-24T13:33:07.586Z,14.65
2023-03-24T13:35:54.178Z,15.17
2023-03-24T13:38:26.603Z,15.52
2023-03-24T13:40:57.055Z,15.92
2023-03-24T13:43:26.198Z,15.69
2023-03-24T13:46:00.271Z,15.66
2023-03-24T13:48:34.219Z,15.74
2023-03-24T13:51:04.741Z,15.82
2023-03-24T13:53:36.412Z,15.92
2023-03-24T13:56:07.959Z,16.14
2023-03-24T13:59:07.884Z,15.57
2023-03-24T14:01:38.733Z,15.29
2023-03-24T14:04:23.194Z,14.64
2023-03-24T14:06:52.482Z,15.01
2023-03-24T14:09:22.764Z,14.95
2023-03-24T14:12:09.403Z,14.81
2023-03-24T14:14:37.762Z,15.03
2023-03-24T14:17:15.502Z,15.50
2023-03-24T14:19:44.132Z,15.45
2023-03-24T14:22:14.968Z,15.81
2023-03-24T14:24:44.932Z,16.01
2023-03-24T14:27:34.742Z,16.31
2023-03-24T14:30:06.110Z,15.17
2023-03-24T14:32:39.109Z,14.96
2023-03-24T14:35:22.138Z,15.17
2023-03-24T14:37:54.057Z,15.28
2023-03-24T14:40:32.168Z,15.19
2023-03-24T14:43:24.664Z,15.25
2023-03-24T14:45:54.996Z,15.59
2023-03-24T14:48:27.055Z,16.31
2023-03-24T14:50:55.525Z,16.44
2023-03-24T14:53:23.403Z,16.32
2023-03-24T14:55:51.755Z,15.90
2023-03-24T14:58:24.992Z,15.55
2023-03-24T15:03:37.982Z,15.61
2023-03-24T15:06:14.703Z,14.91
2023-03-24T15:08:46.974Z,15.05
2023-03-24T15:11:16.038Z,14.94
2023-03-24T15:13:46.104Z,15.07
2023-03-24T15:16:20.030Z,14.80
2023-03-24T15:18:59.927Z,14.97
2023-03-24T15:21:31.827Z,15.34
2023-03-24T15:24:01.252Z,15.44
2023-03-24T15:26:30.612Z,15.67
2023-03-24T15:29:02.125Z,15.68
2023-03-24T15:31:31.146Z,15.80
2023-03-24T15:34:23.772Z,15.73
2023-03-24T15:36:54.886Z,15.79
2023-03-24T15:39:27.262Z,15.78
2023-03-24T15:41:55.142Z,15.64
2023-03-24T15:44:26.758Z,15.51
2023-03-24T15:46:56.350Z,15.41
2023-03-24T15:49:27.040Z,15.58
2023-03-24T15:51:58.340Z,15.23
2023-03-24T15:54:27.379Z,15.55
2023-03-24T15:57:13.913Z,15.73
2023-03-24T15:59:47.797Z,15.52
2023-03-24T16:02:24.273Z,15.37
2023-03-24T16:05:00.231Z,15.51
2023-03-24T16:07:37.631Z,15.07
2023-03-24T16:10:09.728Z,14.89
2023-03-24T16:12:38.100Z,14.78
2023-03-24T16:15:08.522Z,14.95
2023-03-24T16:17:36.336Z,14.70
2023-03-24T16:20:08.849Z,14.55
2023-03-24T16:22:36.776Z,14.59
2023-03-24T16:25:04.871Z,14.39
2023-03-24T16:27:32.564Z,14.34
2023-03-24T16:30:00.804Z,14.15
2023-03-24T16:32:29.929Z,14.15
2023-03-24T16:34:58.588Z,14.24
2023-03-24T16:37:26.347Z,14.33
2023-03-24T16:39:54.007Z,14.05
2023-03-24T16:42:21.734Z,13.97
2023-03-24T16:44:49.462Z,13.91
2023-03-24T16:47:17.197Z,14.05
2023-03-24T16:49:46.264Z,13.86
2023-03-24T16:52:14.062Z,13.91
2023-03-24T16:54:41.828Z,14.00
2023-03-24T16:57:09.572Z,13.98
2023-03-24T16:59:37.361Z,13.94
2023-03-24T17:02:06.050Z,14.07
2023-03-24T17:04:35.367Z,14.05
2023-03-24T17:07:04.484Z,14.10
2023-03-24T17:09:35.005Z,13.88
2023-03-24T17:12:04.234Z,13.77
2023-03-24T17:14:31.948Z,13.93
2023-03-24T17:17:02.815Z,13.52
2023-03-24T17:19:31.059Z,13.42
2023-03-24T17:22:01.480Z,13.27
2023-03-24T17:24:32.327Z,13.44
2023-03-24T17:27:01.367Z,13.53
2023-03-24T17:29:29.112Z,13.25
2023-03-24T17:31:56.809Z,13.21
2023-03-24T17:34:24.531Z,13.25
2023-03-24T17:36:52.256Z,13.21
2023-03-24T17:39:21.059Z,13.23
2023-03-24T17:41:50.167Z,13.17
2023-03-24T17:44:17.980Z,12.90
2023-03-24T17:46:45.893Z,12.89
2023-03-24T17:49:13.656Z,12.86
2023-03-24T17:51:41.334Z,12.78
2023-03-24T17:54:10.340Z,12.83
2023-03-24T17:56:38.188Z,12.98
2023-03-24T17:59:07.317Z,12.88
2023-03-24T18:01:39.289Z,12.95
2023-03-24T18:04:07.473Z,12.98
2023-03-24T18:06:35.574Z,13.01
2023-03-24T18:09:03.507Z,13.14
2023-03-24T18:11:31.192Z,13.03
2023-03-24T18:13:59.003Z,13.12
2023-03-24T18:16:30.826Z,13.20
2023-03-24T18:18:58.677Z,13.26
2023-03-24T18:21:26.402Z,13.12
2023-03-24T18:23:54.158Z,13.04
2023-03-24T18:26:22.842Z,12.65
2023-03-24T18:28:50.589Z,12.82
2023-03-24T18:31:20.025Z,12.54
2023-03-24T18:33:50.236Z,12.39
2023-03-24T18:36:21.192Z,12.38
2023-03-24T18:38:49.444Z,12.37
2023-03-24T18:41:18.460Z,12.29
2023-03-24T18:43:47.920Z,12.23
2023-03-24T18:46:16.767Z,12.21
2023-03-24T18:48:44.772Z,12.19
2023-03-24T18:51:13.816Z,12.13
2023-03-24T18:53:41.766Z,12.10
2023-03-24T18:56:10.236Z,11.91
2023-03-24T18:58:38.723Z,11.96
2023-03-24T19:01:08.983Z,11.90
2023-03-24T19:03:38.417Z,11.77
2023-03-24T19:06:07.371Z,11.83
2023-03-24T19:08:40.929Z,11.96
2023-03-24T19:11:09.527Z,11.79
2023-03-24T19:13:37.332Z,11.77
2023-03-24T19:16:05.455Z,11.82
2023-03-24T19:18:33.281Z,11.85
2023-03-24T19:21:02.041Z,11.93
2023-03-24T19:23:30.421Z,12.04
2023-03-24T19:25:59.502Z,12.21
2023-03-24T19:28:29.233Z,12.34
2023-03-24T19:30:57.369Z,12.31
2023-03-24T19:33:25.528Z,12.54
2023-03-24T19:35:53.522Z,12.55
2023-03-24T19:38:23.885Z,12.46
2023-03-24T19:40:53.825Z,12.34
2023-03-24T19:43:23.624Z,12.36
2023-03-24T19:45:51.489Z,12.53
2023-03-24T19:48:19.826Z,12.38
2023-03-24T19:50:50.557Z,12.47
2023-03-24T19:53:18.444Z,12.35
2023-03-24T19:55:46.770Z,12.56
2023-03-24T19:58:14.533Z,12.54
2023-03-24T20:00:44.101Z,12.56
2023-03-24T20:03:12.127Z,12.20
2023-03-24T20:05:39.873Z,12.13
2023-03-24T20:08:07.614Z,12.31
2023-03-24T20:10:36.292Z,12.11
2023-03-24T20:13:04.125Z,12.14
2023-03-24T20:15:31.874Z,11.60
2023-03-24T20:18:01.738Z,11.77
2023-03-24T20:20:29.491Z,11.77
2023-03-24T20:22:57.278Z,12.13
2023-03-24T20:25:25.090Z,12.08
2023-03-24T20:27:52.760Z,12.06
2023-03-24T20:30:21.161Z,11.75
2023-03-24T20:32:49.291Z,12.01
2023-03-24T20:35:18.552Z,12.03
2023-03-24T20:37:46.236Z,11.99
2023-03-24T20:40:13.939Z,11.92
2023-03-24T20:42:41.742Z,11.59
2023-03-24T20:45:11.479Z,11.49
2023-03-24T20:47:39.204Z,11.70
2023-03-24T20:50:08.263Z,11.61
2023-03-24T20:52:37.358Z,11.73
2023-03-24T20:55:06.255Z,11.71
2023-03-24T20:57:34.127Z,11.50
2023-03-24T21:00:02.187Z,11.50
2023-03-24T21:02:31.765Z,11.51
2023-03-24T21:04:59.537Z,11.49
2023-03-24T21:07:27.583Z,11.29
2023-03-24T21:09:56.683Z,11.46
2023-03-24T21:12:24.421Z,11.23
2023-03-24T21:14:52.288Z,11.32
2023-03-24T21:17:20.523Z,11.37
2023-03-24T21:19:48.227Z,11.21
2023-03-24T21:22:16.015Z,11.39
2023-03-24T21:24:43.729Z,11.31
2023-03-24T21:27:12.776Z,11.22
2023-03-24T21:29:40.504Z,11.32
2023-03-24T21:32:10.077Z,11.26
2023-03-24T21:34:37.759Z,11.27
2023-03-24T21:37:05.485Z,11.22
2023-03-24T21:39:33.182Z,11.21
2023-03-24T21:42:02.955Z,11.16
2023-03-24T21:44:32.184Z,11.31
2023-03-24T21:47:00.577Z,11.25
2023-03-24T21:49:28.253Z,11.11
2023-03-24T21:51:56.728Z,11.15
2023-03-24T21:54:26.683Z,11.30
2023-03-24T21:56:54.496Z,11.21
2023-03-24T21:59:22.296Z,11.20
2023-03-24T22:01:52.321Z,11.07
2023-03-24T22:04:20.105Z,11.04
2023-03-24T22:06:47.996Z,10.85
2023-03-24T22:09:19.041Z,11.10
2023-03-24T22:11:46.937Z,11.09
2023-03-24T22:14:16.300Z,11.10
2023-03-24T22:16:44.055Z,10.93
2023-03-24T22:19:13.151Z,11.07
2023-03-24T22:21:41.087Z,10.99
2023-03-24T22:24:08.993Z,11.03
2023-03-24T22:26:36.695Z,11.17
2023-03-24T22:29:04.352Z,11.09
2023-03-24T22:31:32.071Z,11.10
2023-03-24T22:33:59.794Z,11.04
2023-03-24T22:36:28.994Z,10.99
2023-03-24T22:38:56.650Z,11.07
2023-03-24T22:41:25.006Z,10.92
2023-03-24T22:43:52.756Z,10.98
2023-03-24T22:46:22.198Z,11.08
2023-03-24T22:48:49.900Z,11.17
2023-03-24T22:51:19.395Z,11.25
2023-03-24T22:53:49.147Z,11.33
2023-03-24T22:56:16.927Z,11.22
2023-03-24T22:58:44.624Z,11.35
2023-03-24T23:01:12.264Z,11.49
2023-03-24T23:03:40.013Z,11.28
2023-03-24T23:06:09.117Z,11.26
2023-03-24T23:08:38.445Z,11.23
2023-03-24T23:11:08.260Z,11.40
2023-03-24T23:13:36.460Z,11.36
2023-03-24T23:16:04.402Z,11.45
2023-03-24T23:18:32.632Z,11.42
2023-03-24T23:21:04.354Z,11.53
2023-03-24T23:23:33.124Z,11.67
2023-03-24T23:26:01.176Z,11.74
2023-03-24T23:28:30.405Z,11.89
2023-03-24T23:30:58.062Z,12.05
2023-03-24T23:33:27.401Z,11.96
2023-03-24T23:35:57.858Z,11.85
2023-03-24T23:38:26.453Z,11.80
2023-03-24T23:40:54.202Z,11.85
2023-03-24T23:43:21.847Z,11.87
2023-03-24T23:45:55.454Z,11.96
2023-03-24T23:48:23.251Z,11.74
2023-03-24T23:50:56.347Z,11.89
2023-03-24T23:53:24.133Z,11.82
2023-03-24T23:55:57.128Z,11.93
2023-03-24T23:58:24.907Z,11.88
